createdAt,value
2022-10-13T00:00:59.196Z,8.70
2022-10-13T00:03:26.074Z,8.80
2022-10-13T00:05:52.851Z,8.80
2022-10-13T00:08:21.816Z,8.80
2022-10-13T00:10:50.329Z,8.80
2022-10-13T00:13:20.354Z,8.80
2022-10-13T00:15:48.478Z,8.80
2022-10-13T00:18:16.590Z,8.80
2022-10-13T00:20:48.958Z,8.70
2022-10-13T00:23:16.823Z,8.80
2022-10-13T00:25:47.505Z,8.80
2022-10-13T00:28:16.291Z,8.80
2022-10-13T00:30:43.262Z,8.80
2022-10-13T00:33:11.881Z,8.90
2022-10-13T00:35:56.875Z,8.80
2022-10-13T00:38:23.913Z,8.90
2022-10-13T00:40:56.052Z,8.90
2022-10-13T00:43:47.212Z,8.90
2022-10-13T00:46:14.279Z,8.90
2022-10-13T00:48:43.083Z,8.90
2022-10-13T00:51:12.558Z,8.90
2022-10-13T00:53:40.619Z,8.80
2022-10-13T00:56:09.988Z,8.90
2022-10-13T00:58:38.856Z,8.80
2022-10-13T01:01:06.769Z,8.80
2022-10-13T01:03:34.022Z,8.90
2022-10-13T01:06:03.180Z,8.90
2022-10-13T01:08:30.777Z,8.90
2022-10-13T01:11:22.690Z,8.90
2022-10-13T01:13:58.121Z,8.90
2022-10-13T01:16:42.887Z,8.80
2022-10-13T01:19:41.544Z,8.80
2022-10-13T01:22:51.016Z,8.80
2022-10-13T01:26:06.286Z,8.80
2022-10-13T01:29:07.586Z,8.90
2022-10-13T01:31:42.243Z,8.90
2022-10-13T01:34:33.949Z,8.90
2022-10-13T01:37:12.084Z,8.90
2022-10-13T01:39:53.298Z,8.80
2022-10-13T01:42:25.871Z,8.80
2022-10-13T01:44:59.767Z,8.70
2022-10-13T01:47:28.797Z,8.70
2022-10-13T01:49:56.744Z,8.70
2022-10-13T01:52:26.381Z,8.70
2022-10-13T01:54:54.610Z,8.70
2022-10-13T01:57:53.704Z,8.70
2022-10-13T02:00:22.200Z,8.70
2022-10-13T02:03:11.208Z,8.80
2022-10-13T02:05:49.981Z,8.80
2022-10-13T02:08:29.913Z,8.80
2022-10-13T02:10:59.054Z,8.90
2022-10-13T02:13:29.426Z,8.90
2022-10-13T02:16:00.437Z,8.90
2022-10-13T02:18:34.965Z,9.00
2022-10-13T02:21:03.821Z,9.00
2022-10-13T02:23:30.798Z,9.10
2022-10-13T02:26:00.215Z,9.10
2022-10-13T02:28:28.405Z,9.10
2022-10-13T02:30:55.436Z,9.10
2022-10-13T02:33:22.155Z,9.10
2022-10-13T02:35:48.902Z,9.20
2022-10-13T02:38:15.865Z,9.20
2022-10-13T02:40:42.643Z,9.20
2022-10-13T02:43:09.346Z,9.20
2022-10-13T02:45:36.059Z,9.10
2022-10-13T02:48:02.898Z,9.10
2022-10-13T02:50:29.616Z,9.10
2022-10-13T02:52:56.660Z,9.00
2022-10-13T02:55:23.390Z,9.00
2022-10-13T02:57:56.285Z,8.90
2022-10-13T03:00:23.393Z,8.90
2022-10-13T03:02:50.528Z,8.90
2022-10-13T03:05:17.344Z,8.90
2022-10-13T03:07:44.067Z,8.90
2022-10-13T03:10:10.786Z,8.90
2022-10-13T03:12:37.473Z,8.80
2022-10-13T03:15:04.553Z,8.80
2022-10-13T03:17:31.255Z,8.90
2022-10-13T03:19:57.965Z,8.80
2022-10-13T03:22:24.640Z,8.90
2022-10-13T03:24:52.112Z,8.90
2022-10-13T03:27:18.875Z,8.90
2022-10-13T03:29:45.562Z,8.90
2022-10-13T03:32:12.352Z,8.90
2022-10-13T03:34:39.103Z,9.00
2022-10-13T03:37:06.310Z,9.00
2022-10-13T03:39:39.245Z,9.00
2022-10-13T03:42:07.450Z,9.00
2022-10-13T03:44:36.237Z,9.00
2022-10-13T03:47:03.097Z,9.00
2022-10-13T03:49:29.844Z,9.00
2022-10-13T03:51:56.557Z,9.00
2022-10-13T03:54:24.252Z,9.00
2022-10-13T03:56:53.194Z,8.90
2022-10-13T03:59:19.900Z,8.90
2022-10-13T04:01:46.710Z,8.90
2022-10-13T04:04:13.487Z,8.90
2022-10-13T04:06:42.054Z,8.90
2022-10-13T04:09:09.499Z,8.90
2022-10-13T04:11:36.786Z,8.90
2022-10-13T04:14:03.908Z,8.90
2022-10-13T04:16:31.835Z,8.80
2022-10-13T04:19:02.177Z,8.90
2022-10-13T04:21:30.247Z,8.80
2022-10-13T04:23:58.553Z,8.80
2022-10-13T04:26:27.715Z,8.80
2022-10-13T04:28:55.467Z,8.70
2022-10-13T04:31:23.851Z,8.70
2022-10-13T04:33:51.389Z,8.70
2022-10-13T04:36:18.842Z,8.70
2022-10-13T04:38:48.437Z,8.70
2022-10-13T04:41:16.491Z,8.70
2022-10-13T04:43:43.369Z,8.70
2022-10-13T04:46:15.154Z,8.70
2022-10-13T04:48:42.245Z,8.70
2022-10-13T04:51:12.255Z,8.80
2022-10-13T04:53:39.660Z,8.80
2022-10-13T04:56:12.646Z,8.70
2022-10-13T04:58:40.767Z,8.80
2022-10-13T05:01:14.536Z,8.80
2022-10-13T05:03:44.464Z,8.80
2022-10-13T05:06:19.886Z,8.80
2022-10-13T05:08:49.637Z,8.80
2022-10-13T05:11:17.282Z,8.70
2022-10-13T05:13:47.387Z,8.70
2022-10-13T05:16:16.405Z,8.70
2022-10-13T05:18:43.734Z,8.70
2022-10-13T05:21:13.940Z,8.70
2022-10-13T05:23:41.832Z,8.70
2022-10-13T05:26:11.364Z,8.70
2022-10-13T05:28:38.436Z,8.70
2022-10-13T05:31:25.058Z,8.70
2022-10-13T05:33:53.866Z,8.80
2022-10-13T05:36:27.639Z,8.80
2022-10-13T05:38:56.677Z,8.80
2022-10-13T05:41:24.351Z,8.80
2022-10-13T05:43:55.434Z,8.80
2022-10-13T05:46:22.025Z,8.80
2022-10-13T05:48:48.826Z,8.90
2022-10-13T05:51:26.026Z,8.90
2022-10-13T05:53:59.507Z,8.90
2022-10-13T05:56:31.645Z,8.90
2022-10-13T05:59:04.208Z,9.00
2022-10-13T06:01:35.088Z,9.00
2022-10-13T06:04:05.341Z,9.00
2022-10-13T06:06:32.323Z,9.00
2022-10-13T06:09:00.129Z,9.00
2022-10-13T06:11:27.279Z,9.00
2022-10-13T06:13:54.009Z,9.00
2022-10-13T06:16:20.751Z,9.00
2022-10-13T06:18:48.258Z,9.10
2022-10-13T06:21:14.992Z,9.10
2022-10-13T06:23:41.720Z,9.10
2022-10-13T06:26:09.125Z,9.10
2022-10-13T06:28:37.358Z,9.10
2022-10-13T06:31:06.548Z,9.20
2022-10-13T06:33:33.971Z,9.20
2022-10-13T06:36:05.466Z,9.20
2022-10-13T06:38:32.871Z,9.20
2022-10-13T06:41:04.104Z,9.20
2022-10-13T06:43:39.703Z,9.20
2022-10-13T06:46:11.095Z,9.30
2022-10-13T06:48:38.038Z,9.30
2022-10-13T06:51:06.781Z,9.30
2022-10-13T06:53:33.619Z,9.30
2022-10-13T06:56:02.280Z,9.30
2022-10-13T06:58:29.434Z,9.30
2022-10-13T07:00:56.315Z,9.30
2022-10-13T07:03:24.031Z,9.30
2022-10-13T07:05:50.776Z,9.30
2022-10-13T07:08:17.510Z,9.30
2022-10-13T07:10:44.380Z,9.30
2022-10-13T07:13:11.202Z,9.30
2022-10-13T07:15:41.405Z,9.30
2022-10-13T07:18:08.449Z,9.30
2022-10-13T07:20:35.266Z,9.40
2022-10-13T07:23:02.362Z,9.40
2022-10-13T07:25:29.321Z,9.40
2022-10-13T07:27:56.125Z,9.40
2022-10-13T07:30:22.860Z,9.40
2022-10-13T07:32:49.955Z,9.50
2022-10-13T07:35:17.083Z,9.50
2022-10-13T07:37:43.988Z,9.50
2022-10-13T07:40:11.173Z,9.60
2022-10-13T07:42:37.959Z,9.60
2022-10-13T07:45:05.161Z,9.70
2022-10-13T07:47:31.885Z,9.70
2022-10-13T07:49:58.590Z,9.70
2022-10-13T07:52:25.271Z,9.80
2022-10-13T07:54:51.997Z,9.80
2022-10-13T07:57:18.736Z,9.80
2022-10-13T07:59:45.669Z,9.90
2022-10-13T08:02:13.606Z,9.90
2022-10-13T08:04:40.333Z,10.00
2022-10-13T08:07:07.243Z,10.00
2022-10-13T08:09:34.423Z,10.10
2022-10-13T08:12:02.008Z,10.10
2022-10-13T08:14:30.312Z,10.10
2022-10-13T08:17:01.191Z,10.20
2022-10-13T08:19:28.409Z,10.20
2022-10-13T08:21:59.868Z,10.20
2022-10-13T08:24:27.876Z,10.30
2022-10-13T08:26:55.118Z,10.30
2022-10-13T08:29:23.450Z,10.30
2022-10-13T08:31:52.870Z,10.30
2022-10-13T08:34:20.549Z,10.40
2022-10-13T08:36:47.455Z,10.40
2022-10-13T08:39:14.350Z,10.40
2022-10-13T08:41:46.486Z,10.40
2022-10-13T08:47:20.526Z,10.50
2022-10-13T08:49:47.606Z,10.60
2022-10-13T08:52:22.016Z,10.60
2022-10-13T08:54:50.367Z,10.70
2022-10-13T08:57:18.223Z,10.70
2022-10-13T08:59:45.953Z,10.70
2022-10-13T09:02:26.414Z,10.80
2022-10-13T09:04:53.554Z,10.90
2022-10-13T09:07:26.456Z,10.80
2022-10-13T09:09:54.417Z,10.90
2022-10-13T09:12:25.022Z,10.90
2022-10-13T09:15:05.265Z,10.90
2022-10-13T09:17:33.590Z,11.00
2022-10-13T09:20:14.843Z,11.00
2022-10-13T09:22:42.323Z,11.00
2022-10-13T09:25:19.867Z,11.10
2022-10-13T09:27:49.610Z,11.10
2022-10-13T09:30:28.267Z,11.20
2022-10-13T09:33:20.022Z,11.20
2022-10-13T09:36:13.558Z,11.20
2022-10-13T09:38:43.050Z,11.30
2022-10-13T09:41:09.728Z,11.30
2022-10-13T09:43:45.780Z,11.40
2022-10-13T09:46:44.546Z,11.40
2022-10-13T09:49:31.543Z,11.50
2022-10-13T09:52:04.243Z,11.50
2022-10-13T09:54:40.674Z,11.50
2022-10-13T09:57:15.440Z,11.50
2022-10-13T10:00:11.457Z,11.50
2022-10-13T10:02:48.997Z,11.50
2022-10-13T10:05:23.427Z,11.50
2022-10-13T10:07:52.164Z,11.50
2022-10-13T10:10:35.032Z,11.50
2022-10-13T10:13:04.226Z,11.50
2022-10-13T10:15:54.510Z,11.50
2022-10-13T10:18:42.759Z,11.50
2022-10-13T10:21:43.290Z,11.60
2022-10-13T10:24:36.426Z,11.60
2022-10-13T10:27:24.496Z,11.70
2022-10-13T10:30:29.645Z,11.80
2022-10-13T10:33:03.961Z,11.80
2022-10-13T10:35:39.126Z,11.90
2022-10-13T10:38:29.819Z,11.90
2022-10-13T10:41:31.795Z,11.90
2022-10-13T10:44:17.659Z,12.00
2022-10-13T10:46:48.703Z,12.00
2022-10-13T10:49:20.066Z,12.00
2022-10-13T10:51:46.723Z,12.10
2022-10-13T10:54:24.615Z,12.10
2022-10-13T10:57:00.678Z,12.10
2022-10-13T10:59:52.364Z,12.20
2022-10-13T11:02:41.214Z,12.20
2022-10-13T11:05:08.055Z,12.20
2022-10-13T11:07:54.683Z,12.30
2022-10-13T11:10:22.522Z,12.30
2022-10-13T11:12:52.687Z,12.40
2022-10-13T11:15:24.084Z,12.40
2022-10-13T11:17:51.571Z,12.50
2022-10-13T11:20:18.347Z,12.50
2022-10-13T11:23:00.214Z,12.60
2022-10-13T11:25:46.293Z,12.70
2022-10-13T11:28:22.539Z,12.80
2022-10-13T11:30:51.523Z,12.80
2022-10-13T11:33:39.811Z,12.90
2022-10-13T11:36:31.357Z,13.00
2022-10-13T11:39:23.978Z,13.00
2022-10-13T11:42:11.533Z,13.10
2022-10-13T11:44:55.601Z,13.10
2022-10-13T11:47:34.039Z,13.20
2022-10-13T11:50:25.543Z,13.20
2022-10-13T11:53:14.557Z,13.20
2022-10-13T11:55:50.527Z,13.30
2022-10-13T11:58:21.165Z,13.30
2022-10-13T12:01:12.905Z,13.30
2022-10-13T12:03:45.086Z,13.30
2022-10-13T12:06:20.829Z,13.30
2022-10-13T12:08:52.184Z,13.30
2022-10-13T12:11:32.067Z,13.30
2022-10-13T12:13:59.733Z,13.30
2022-10-13T12:16:28.701Z,13.30
2022-10-13T12:19:08.860Z,13.30
2022-10-13T12:21:49.752Z,13.30
2022-10-13T12:24:16.792Z,13.30
2022-10-13T12:26:43.812Z,13.30
2022-10-13T12:29:15.144Z,13.30
2022-10-13T12:31:45.929Z,13.40
2022-10-13T12:34:32.029Z,13.40
2022-10-13T12:37:14.881Z,13.40
2022-10-13T12:39:41.866Z,13.40
2022-10-13T12:42:12.925Z,13.50
2022-10-13T12:44:40.150Z,13.70
2022-10-13T12:47:37.367Z,13.80
2022-10-13T12:50:32.130Z,14.00
2022-10-13T12:53:12.360Z,14.10
2022-10-13T12:56:01.148Z,14.20
2022-10-13T12:58:31.672Z,14.20
2022-10-13T13:01:09.140Z,14.20
2022-10-13T13:03:37.834Z,14.10
2022-10-13T13:06:13.829Z,14.10
2022-10-13T13:08:42.719Z,14.10
2022-10-13T13:11:24.685Z,14.00
2022-10-13T13:14:12.289Z,14.10
2022-10-13T13:16:39.026Z,14.00
2022-10-13T13:19:05.723Z,14.00
2022-10-13T13:21:32.430Z,14.10
2022-10-13T13:23:59.473Z,14.00
2022-10-13T13:26:28.082Z,14.10
2022-10-13T13:28:56.369Z,14.00
2022-10-13T13:31:25.402Z,14.00
2022-10-13T13:33:52.495Z,14.00
2022-10-13T13:36:22.258Z,14.10
2022-10-13T13:38:52.983Z,14.10
2022-10-13T13:41:20.176Z,14.10
2022-10-13T13:43:47.132Z,14.00
2022-10-13T13:46:22.652Z,14.00
2022-10-13T13:48:49.504Z,14.00
2022-10-13T13:51:17.139Z,14.00
2022-10-13T13:53:45.853Z,14.00
2022-10-13T13:56:14.986Z,14.00
2022-10-13T13:58:42.033Z,14.00
2022-10-13T14:01:09.006Z,14.00
2022-10-13T14:03:35.737Z,14.00
2022-10-13T14:06:04.923Z,14.00
2022-10-13T14:08:41.433Z,14.00
2022-10-13T14:11:08.481Z,14.00
2022-10-13T14:13:35.335Z,14.00
2022-10-13T14:16:03.458Z,14.00
2022-10-13T14:18:31.354Z,13.90
2022-10-13T14:20:58.192Z,13.90
2022-10-13T14:23:24.967Z,13.90
2022-10-13T14:25:51.720Z,13.90
2022-10-13T14:28:20.640Z,13.90
2022-10-13T14:30:47.461Z,13.90
2022-10-13T14:33:19.148Z,13.90
2022-10-13T14:35:46.902Z,13.80
2022-10-13T14:38:16.250Z,13.80
2022-10-13T14:40:44.340Z,13.80
2022-10-13T14:43:11.053Z,13.70
2022-10-13T14:45:37.746Z,13.80
2022-10-13T14:48:05.942Z,13.80
2022-10-13T14:50:34.212Z,13.80
2022-10-13T14:53:00.941Z,13.70
2022-10-13T14:55:27.816Z,13.70
2022-10-13T14:57:54.581Z,13.70
2022-10-13T15:00:21.418Z,13.70
2022-10-13T15:02:48.294Z,13.70
2022-10-13T15:05:15.348Z,13.70
2022-10-13T15:07:42.147Z,13.70
2022-10-13T15:10:09.202Z,13.70
2022-10-13T15:12:35.953Z,13.70
2022-10-13T15:15:03.098Z,13.70
2022-10-13T15:17:31.055Z,13.70
2022-10-13T15:19:57.849Z,13.70
2022-10-13T15:22:24.648Z,13.60
2022-10-13T15:24:51.442Z,13.60
2022-10-13T15:27:18.231Z,13.60
2022-10-13T15:29:44.966Z,13.60
2022-10-13T15:32:20.176Z,13.60
2022-10-13T15:34:54.552Z,13.50
2022-10-13T15:37:21.368Z,13.50
2022-10-13T15:39:51.999Z,13.50
2022-10-13T15:42:21.611Z,13.50
2022-10-13T15:45:08.770Z,13.50
2022-10-13T15:47:36.329Z,13.50
2022-10-13T15:50:03.654Z,13.40
2022-10-13T15:52:34.695Z,13.50
2022-10-13T15:55:02.127Z,13.30
2022-10-13T15:57:30.835Z,13.40
2022-10-13T15:59:57.597Z,13.40
2022-10-13T16:02:24.363Z,13.40
2022-10-13T16:04:51.203Z,13.40
2022-10-13T16:07:20.966Z,13.30
2022-10-13T16:09:47.685Z,13.30
2022-10-13T16:12:14.499Z,13.30
2022-10-13T16:14:41.187Z,13.30
2022-10-13T16:17:07.890Z,13.30
2022-10-13T16:19:34.639Z,13.30
2022-10-13T16:22:01.386Z,13.30
2022-10-13T16:24:29.376Z,13.30
2022-10-13T16:26:56.144Z,13.30
2022-10-13T16:29:24.122Z,13.30
2022-10-13T16:31:50.825Z,13.20
2022-10-13T16:34:17.597Z,13.20
2022-10-13T16:36:44.366Z,13.20
2022-10-13T16:39:11.152Z,13.20
2022-10-13T16:41:40.152Z,13.20
2022-10-13T16:44:06.918Z,13.20
2022-10-13T16:46:33.802Z,13.20
2022-10-13T16:49:01.005Z,13.20
2022-10-13T16:51:28.797Z,13.20
2022-10-13T16:54:02.785Z,13.20
2022-10-13T16:56:31.078Z,13.10
2022-10-13T16:58:59.752Z,13.10
2022-10-13T17:01:28.085Z,13.10
2022-10-13T17:03:55.469Z,13.10
2022-10-13T17:06:24.448Z,13.10
2022-10-13T17:08:54.896Z,13.10
2022-10-13T17:11:24.458Z,13.00
2022-10-13T17:13:51.910Z,13.00
2022-10-13T17:16:19.456Z,13.00
2022-10-13T17:18:46.456Z,13.00
2022-10-13T17:21:15.739Z,13.00
2022-10-13T17:23:47.507Z,13.00
2022-10-13T17:26:16.832Z,12.90
2022-10-13T17:28:44.597Z,12.90
2022-10-13T17:31:13.544Z,12.90
2022-10-13T17:33:41.785Z,12.90
2022-10-13T17:36:16.706Z,12.90
2022-10-13T17:38:44.299Z,12.90
2022-10-13T17:41:11.750Z,12.90
2022-10-13T17:43:47.851Z,12.80
2022-10-13T17:46:37.907Z,12.80
2022-10-13T17:49:07.603Z,12.80
2022-10-13T17:51:34.830Z,12.80
2022-10-13T17:54:01.720Z,12.80
2022-10-13T17:56:28.974Z,12.80
2022-10-13T17:58:56.617Z,12.80
2022-10-13T18:01:34.799Z,12.80
2022-10-13T18:04:08.404Z,12.70
2022-10-13T18:06:40.583Z,12.80
2022-10-13T18:09:10.479Z,12.70
2022-10-13T18:11:38.757Z,12.70
2022-10-13T18:14:06.452Z,12.80
2022-10-13T18:16:33.319Z,12.70
2022-10-13T18:19:00.212Z,12.70
2022-10-13T18:21:27.306Z,12.70
2022-10-13T18:23:55.847Z,12.70
2022-10-13T18:26:23.054Z,12.70
2022-10-13T18:28:51.068Z,12.70
2022-10-13T18:31:23.412Z,12.70
2022-10-13T18:33:58.678Z,12.70
2022-10-13T18:36:31.282Z,12.60
2022-10-13T18:39:05.797Z,12.60
2022-10-13T18:41:33.770Z,12.60
2022-10-13T18:44:00.649Z,12.60
2022-10-13T18:46:27.375Z,12.60
2022-10-13T18:48:54.810Z,12.60
2022-10-13T18:51:21.936Z,12.60
2022-10-13T18:53:50.531Z,12.60
2022-10-13T18:56:23.474Z,12.60
2022-10-13T18:58:53.496Z,12.60
2022-10-13T19:01:25.058Z,12.60
2022-10-13T19:03:53.733Z,12.60
2022-10-13T19:06:26.761Z,12.60
2022-10-13T19:08:58.530Z,12.60
2022-10-13T19:11:25.406Z,12.60
2022-10-13T19:13:53.378Z,12.50
2022-10-13T19:16:23.391Z,12.50
2022-10-13T19:18:51.113Z,12.50
2022-10-13T19:21:19.582Z,12.50
2022-10-13T19:23:46.998Z,12.50
2022-10-13T19:26:25.153Z,12.50
2022-10-13T19:29:04.616Z,12.50
2022-10-13T19:31:33.330Z,12.50
2022-10-13T19:34:02.740Z,12.50
2022-10-13T19:36:32.027Z,12.60
2022-10-13T19:39:01.750Z,12.60
2022-10-13T19:41:30.689Z,12.50
2022-10-13T19:43:58.495Z,12.60
2022-10-13T19:46:34.984Z,12.60
2022-10-13T19:49:02.538Z,12.50
2022-10-13T19:51:29.609Z,12.60
2022-10-13T19:53:56.382Z,12.50
2022-10-13T19:56:28.685Z,12.50
2022-10-13T19:58:55.415Z,12.50
2022-10-13T20:01:22.711Z,12.50
2022-10-13T20:03:49.809Z,12.60
2022-10-13T20:06:17.406Z,12.50
2022-10-13T20:08:45.020Z,12.50
2022-10-13T20:11:17.226Z,12.50
2022-10-13T20:13:47.281Z,12.50
2022-10-13T20:16:17.037Z,12.50
2022-10-13T20:18:43.972Z,12.50
2022-10-13T20:21:12.667Z,12.50
2022-10-13T20:23:40.996Z,12.50
2022-10-13T20:26:13.006Z,12.50
2022-10-13T20:28:43.132Z,12.50
2022-10-13T20:31:12.848Z,12.50
2022-10-13T20:33:40.565Z,12.40
2022-10-13T20:36:11.582Z,12.40
2022-10-13T20:38:39.015Z,12.40
2022-10-13T20:41:17.607Z,12.40
2022-10-13T20:43:45.421Z,12.40
2022-10-13T20:46:12.399Z,12.40
2022-10-13T20:49:08.913Z,12.40
2022-10-13T20:51:28.024Z,12.40
2022-10-13T20:53:54.953Z,12.40
2022-10-13T20:56:24.605Z,12.40
2022-10-13T20:58:52.051Z,12.40
2022-10-13T21:01:20.530Z,12.40
2022-10-13T21:03:51.143Z,12.40
2022-10-13T21:06:17.953Z,12.40
2022-10-13T21:08:45.702Z,12.40
2022-10-13T21:11:14.209Z,12.40
2022-10-13T21:13:42.295Z,12.40
2022-10-13T21:16:11.894Z,12.40
2022-10-13T21:18:38.673Z,12.40
2022-10-13T21:21:08.098Z,12.40
2022-10-13T21:23:35.690Z,12.40
2022-10-13T21:26:04.846Z,12.40
2022-10-13T21:28:32.060Z,12.30
2022-10-13T21:31:03.685Z,12.30
2022-10-13T21:33:31.963Z,12.40
2022-10-13T21:36:01.695Z,12.30
2022-10-13T21:38:28.442Z,12.30
2022-10-13T21:40:55.141Z,12.30
2022-10-13T21:43:21.882Z,12.30
2022-10-13T21:45:48.591Z,12.30
2022-10-13T21:48:15.372Z,12.30
2022-10-13T21:50:42.423Z,12.30
2022-10-13T21:53:09.191Z,12.30
2022-10-13T21:55:35.884Z,12.30
2022-10-13T21:58:05.256Z,12.30
2022-10-13T22:00:33.406Z,12.30
2022-10-13T22:03:00.246Z,12.30
2022-10-13T22:05:26.958Z,12.30
2022-10-13T22:07:57.156Z,12.40
2022-10-13T22:10:23.897Z,12.30
2022-10-13T22:12:51.217Z,12.30
2022-10-13T22:15:17.930Z,12.20
2022-10-13T22:17:44.718Z,12.20
2022-10-13T22:20:11.453Z,12.20
2022-10-13T22:22:38.839Z,12.20
2022-10-13T22:25:06.140Z,12.20
2022-10-13T22:27:34.798Z,12.20
2022-10-13T22:30:01.621Z,12.20
2022-10-13T22:32:28.359Z,12.20
2022-10-13T22:34:55.064Z,12.20
2022-10-13T22:37:23.004Z,12.20
2022-10-13T22:39:50.133Z,12.20
2022-10-13T22:42:16.835Z,12.20
2022-10-13T22:44:43.546Z,12.20
2022-10-13T22:47:10.274Z,12.20
2022-10-13T22:49:37.021Z,12.20
2022-10-13T22:52:04.155Z,12.20
2022-10-13T22:54:30.855Z,12.20
2022-10-13T22:56:57.592Z,12.20
2022-10-13T22:59:24.539Z,12.20
2022-10-13T23:01:51.248Z,12.20
2022-10-13T23:04:17.973Z,12.20
2022-10-13T23:06:44.855Z,12.20
2022-10-13T23:09:13.908Z,12.10
2022-10-13T23:11:40.878Z,12.10
2022-10-13T23:14:10.713Z,12.10
2022-10-13T23:16:37.476Z,12.10
2022-10-13T23:19:04.387Z,12.10
2022-10-13T23:21:31.808Z,12.10
2022-10-13T23:24:03.866Z,12.10
2022-10-13T23:26:31.043Z,12.10
2022-10-13T23:28:58.545Z,12.00
2022-10-13T23:31:26.703Z,12.10
2022-10-13T23:33:54.235Z,12.00
2022-10-13T23:36:23.871Z,12.00
2022-10-13T23:39:10.348Z,12.00
2022-10-13T23:41:37.902Z,12.00
2022-10-13T23:44:04.982Z,12.00
2022-10-13T23:46:31.691Z,12.00
2022-10-13T23:48:58.479Z,12.00
2022-10-13T23:51:26.242Z,12.00
2022-10-13T23:53:53.733Z,12.00
2022-10-13T23:56:20.554Z,12.00
2022-10-13T23:58:47.528Z,11.90
